Time;durP1;ratioP1;P1;durP2;ratioP2;P2;SDS_P1;SDS_P2;PMS_P1;PMS_P2;Temp;Humidity;BMP_temperature;BMP_pressure;BME280_temperature;BME280_humidity;BME280_pressure;Samples;Min_cycle;Max_cycle;Signal;HPM_P1;HPM_P2
2022/12/02 00:01:19;;;;;;;59.83;24.93;;;3.20;99.90;;;;;;4841745;29;20486;-61
2022/12/02 00:03:49;;;;;;;55.13;23.80;;;3.30;99.90;;;;;;4841877;29;20478;-61
2022/12/02 00:06:26;;;;;;;52.47;23.80;;;3.20;99.90;;;;;;4842071;29;20474;-61
2022/12/02 00:08:59;;;;;;;54.30;24.30;;;3.30;99.90;;;;;;4842178;29;20476;-61
2022/12/02 00:11:31;;;;;;;48.53;24.13;;;3.30;99.90;;;;;;4841793;29;20475;-61
2022/12/02 00:14:06;;;;;;;49.53;22.50;;;3.30;99.90;;;;;;4841706;29;21019;-61
2022/12/02 00:16:35;;;;;;;54.97;24.33;;;3.30;99.90;;;;;;4842162;29;20487;-61
2022/12/02 00:19:04;;;;;;;50.90;23.33;;;3.30;99.90;;;;;;4842192;29;20825;-61
2022/12/02 00:21:34;;;;;;;55.27;24.57;;;3.30;99.90;;;;;;4841602;29;20476;-61
2022/12/02 00:24:03;;;;;;;53.43;23.37;;;3.30;99.90;;;;;;4845584;29;20504;-61
2022/12/02 00:26:34;;;;;;;52.93;22.73;;;3.30;99.90;;;;;;4846421;29;20475;-61
2022/12/02 00:29:03;;;;;;;55.23;23.73;;;3.20;99.90;;;;;;4845115;29;20485;-61
2022/12/02 00:31:32;;;;;;;56.63;24.03;;;3.20;99.90;;;;;;4840475;29;20574;-61
2022/12/02 00:34:01;;;;;;;47.27;21.80;;;3.20;99.90;;;;;;4845649;29;20503;-61
2022/12/02 00:36:31;;;;;;;49.93;22.93;;;3.30;99.90;;;;;;4844047;29;20570;-61
2022/12/02 00:39:01;;;;;;;50.17;21.00;;;3.30;99.90;;;;;;4845472;29;20471;-61
2022/12/02 00:41:30;;;;;;;52.23;23.30;;;3.30;99.90;;;;;;4845308;29;20481;-61
2022/12/02 00:46:47;;;;;;;51.83;23.03;;;3.40;99.90;;;;;;4845125;29;20471;-61
2022/12/02 00:49:17;;;;;;;47.77;22.30;;;3.40;99.90;;;;;;4845364;29;20476;-61
2022/12/02 00:51:47;;;;;;;51.07;22.87;;;3.40;99.90;;;;;;4843648;29;20566;-62
2022/12/02 00:54:16;;;;;;;46.40;21.53;;;3.40;99.90;;;;;;4844069;29;20472;-60
2022/12/02 00:56:46;;;;;;;46.87;21.13;;;3.40;99.90;;;;;;4843743;29;21052;-61
2022/12/02 00:59:17;;;;;;;44.43;21.33;;;3.40;99.90;;;;;;4849912;29;20574;-61
2022/12/02 01:01:47;;;;;;;45.27;20.70;;;3.30;99.90;;;;;;4840040;29;20547;-61
2022/12/02 01:04:17;;;;;;;43.00;19.87;;;3.20;99.90;;;;;;4834029;29;20468;-61
2022/12/02 01:06:47;;;;;;;49.37;21.73;;;3.30;99.90;;;;;;4840991;29;20490;-61
2022/12/02 01:09:16;;;;;;;46.33;20.97;;;3.20;99.90;;;;;;4845035;29;20476;-61
2022/12/02 01:11:45;;;;;;;43.33;19.77;;;3.10;99.90;;;;;;4844798;29;20573;-61
2022/12/02 01:14:16;;;;;;;48.77;20.47;;;3.10;99.90;;;;;;4845002;29;20481;-61
2022/12/02 01:16:46;;;;;;;44.57;19.90;;;3.20;99.90;;;;;;4844738;29;20502;-61
2022/12/02 01:19:15;;;;;;;48.63;21.57;;;3.20;99.90;;;;;;4858964;29;20886;-61
2022/12/02 01:21:45;;;;;;;49.83;21.47;;;3.10;99.90;;;;;;4844448;29;20470;-60
2022/12/02 01:24:14;;;;;;;53.93;23.00;;;3.10;99.90;;;;;;4844905;29;20836;-61
2022/12/02 01:26:43;;;;;;;51.50;21.53;;;3.10;99.90;;;;;;4850529;29;21056;-61
2022/12/02 01:29:12;;;;;;;49.63;21.27;;;3.00;99.90;;;;;;4837382;29;20847;-61
2022/12/02 01:31:43;;;;;;;48.07;20.47;;;3.00;99.90;;;;;;4844098;29;20582;-61
2022/12/02 01:34:12;;;;;;;51.07;21.40;;;3.10;99.90;;;;;;4842235;29;20503;-61
2022/12/02 01:36:41;;;;;;;50.80;21.50;;;3.00;99.90;;;;;;4844280;29;20805;-61
2022/12/02 01:39:10;;;;;;;56.53;21.97;;;3.00;99.90;;;;;;4851163;29;21011;-61
2022/12/02 01:41:40;;;;;;;58.23;24.90;;;3.00;99.90;;;;;;4844023;29;20465;-61
2022/12/02 01:44:09;;;;;;;58.40;22.57;;;2.90;99.90;;;;;;4843022;29;20930;-61
2022/12/02 01:46:39;;;;;;;59.63;22.73;;;2.90;99.90;;;;;;4844124;29;20539;-61
2022/12/02 01:49:10;;;;;;;61.73;22.47;;;2.90;99.90;;;;;;4844377;29;20523;-61
2022/12/02 01:51:40;;;;;;;65.80;23.17;;;3.00;99.90;;;;;;4843966;29;20538;-61
2022/12/02 01:54:10;;;;;;;63.43;22.03;;;3.00;99.90;;;;;;4825905;29;21007;-61
2022/12/02 01:56:39;;;;;;;58.00;22.70;;;3.00;99.90;;;;;;4839947;29;20476;-61
2022/12/02 01:59:10;;;;;;;60.77;22.57;;;3.00;99.90;;;;;;4842837;29;20484;-61
2022/12/02 02:01:40;;;;;;;64.70;24.77;;;2.90;99.90;;;;;;4843619;29;20568;-61
2022/12/02 02:04:12;;;;;;;65.67;24.60;;;3.00;99.90;;;;;;4844043;29;20479;-61
2022/12/02 02:06:44;;;;;;;67.70;24.30;;;2.90;99.90;;;;;;4857866;29;20547;-61
2022/12/02 02:09:14;;;;;;;68.83;23.23;;;2.80;99.90;;;;;;4835596;29;20475;-61
2022/12/02 02:11:44;;;;;;;63.27;23.70;;;2.80;99.90;;;;;;4843440;29;20556;-61
2022/12/02 02:14:14;;;;;;;64.30;23.27;;;2.80;99.90;;;;;;4843870;29;20550;-61
2022/12/02 02:16:43;;;;;;;68.43;22.83;;;2.80;99.90;;;;;;4842407;29;20482;-61
2022/12/02 02:19:17;;;;;;;61.70;23.50;;;2.80;99.90;;;;;;4843763;29;20497;-61
2022/12/02 02:21:51;;;;;;;67.87;24.47;;;2.80;99.90;;;;;;4843426;29;20517;-60
2022/12/02 02:24:23;;;;;;;69.87;24.33;;;2.80;99.90;;;;;;4842432;29;20573;-61
2022/12/02 02:26:53;;;;;;;66.83;23.67;;;2.70;99.90;;;;;;4842168;29;20531;-60
2022/12/02 02:29:24;;;;;;;69.93;25.33;;;2.70;99.90;;;;;;4851863;29;20498;-61
2022/12/02 02:31:53;;;;;;;65.10;25.00;;;2.70;99.90;;;;;;4841988;29;21084;-61
2022/12/02 02:34:22;;;;;;;65.67;26.33;;;2.70;99.90;;;;;;4854470;29;20512;-60
2022/12/02 02:36:52;;;;;;;72.87;26.53;;;2.70;99.90;;;;;;4843329;29;20555;-61
2022/12/02 02:39:24;;;;;;;71.73;25.87;;;2.70;99.90;;;;;;4843354;29;20474;-61
2022/12/02 02:41:54;;;;;;;69.43;24.73;;;2.70;99.90;;;;;;4823876;29;20481;-61
2022/12/02 02:44:24;;;;;;;70.00;25.23;;;2.60;99.90;;;;;;4838820;29;20484;-60
2022/12/02 02:46:56;;;;;;;74.00;25.77;;;2.60;99.90;;;;;;4823643;29;20565;-61
2022/12/02 02:49:26;;;;;;;70.97;26.17;;;2.50;99.90;;;;;;4823757;29;20678;-59
2022/12/02 02:51:56;;;;;;;67.30;24.97;;;2.50;99.90;;;;;;4855113;29;20504;-61
2022/12/02 02:54:26;;;;;;;64.60;22.93;;;2.50;99.90;;;;;;4857203;29;20580;-61
2022/12/02 02:56:56;;;;;;;65.80;24.33;;;2.60;99.90;;;;;;4841733;29;20533;-61
2022/12/02 02:59:25;;;;;;;80.63;27.23;;;2.60;99.90;;;;;;4843084;29;20479;-61
2022/12/02 03:01:55;;;;;;;69.93;24.47;;;2.60;99.90;;;;;;4856535;29;20484;-61
2022/12/02 03:04:26;;;;;;;66.93;23.60;;;2.80;99.90;;;;;;4842819;29;20464;-61
2022/12/02 03:06:55;;;;;;;70.80;24.00;;;2.70;99.90;;;;;;4841531;29;21002;-61
2022/12/02 03:09:26;;;;;;;64.27;24.73;;;2.60;99.90;;;;;;4841378;29;21003;-60
2022/12/02 03:11:57;;;;;;;64.67;24.67;;;2.60;99.90;;;;;;4842894;29;20466;-61
2022/12/02 03:14:27;;;;;;;63.73;24.63;;;2.60;99.90;;;;;;4842609;29;20530;-60
2022/12/02 03:16:56;;;;;;;58.50;23.33;;;2.50;99.90;;;;;;4842776;29;20546;-61
2022/12/02 03:19:24;;;;;;;55.17;22.37;;;2.50;99.90;;;;;;4842948;29;20481;-61
2022/12/02 03:21:53;;;;;;;57.93;22.23;;;2.40;99.90;;;;;;4842777;29;21022;-61
2022/12/02 03:24:21;;;;;;;57.60;22.87;;;2.40;99.90;;;;;;4843025;29;21091;-61
2022/12/02 03:26:51;;;;;;;59.47;23.97;;;2.40;99.90;;;;;;4850026;29;20498;-61
2022/12/02 03:29:20;;;;;;;57.53;22.87;;;2.40;99.90;;;;;;4842820;29;21002;-61
2022/12/02 03:31:48;;;;;;;55.37;22.93;;;2.40;99.90;;;;;;4842103;29;20575;-61
2022/12/02 03:34:16;;;;;;;53.20;21.70;;;2.50;99.90;;;;;;4842629;29;21069;-60
2022/12/02 03:36:45;;;;;;;56.00;21.53;;;2.60;99.90;;;;;;4842453;29;20538;-61
2022/12/02 03:39:13;;;;;;;57.07;24.63;;;2.50;99.90;;;;;;4842165;29;20490;-61
2022/12/02 03:41:41;;;;;;;53.87;24.00;;;2.50;99.90;;;;;;4842213;29;20473;-62
2022/12/02 03:44:11;;;;;;;59.50;24.60;;;2.50;99.90;;;;;;4842179;29;20545;-61
2022/12/02 03:46:39;;;;;;;48.57;23.87;;;2.40;99.90;;;;;;4842514;29;20485;-61
2022/12/02 03:49:07;;;;;;;58.20;25.50;;;2.40;99.90;;;;;;4842300;29;20519;-60
2022/12/02 03:51:35;;;;;;;52.57;23.27;;;2.40;99.90;;;;;;4842010;29;20477;-61
2022/12/02 03:54:04;;;;;;;52.37;24.17;;;2.40;99.90;;;;;;4842381;29;20903;-61
2022/12/02 03:56:36;;;;;;;55.50;24.73;;;2.40;99.90;;;;;;4849026;29;20474;-61
2022/12/02 03:59:04;;;;;;;51.77;23.97;;;2.50;99.90;;;;;;4841973;29;20493;-61
2022/12/02 04:01:34;;;;;;;57.53;25.70;;;2.50;99.90;;;;;;4841500;29;20482;-60
2022/12/02 04:04:02;;;;;;;57.20;25.00;;;2.50;99.90;;;;;;4842108;29;20486;-61
2022/12/02 04:06:30;;;;;;;61.47;26.77;;;2.40;99.90;;;;;;4842004;29;20481;-61
2022/12/02 04:08:58;;;;;;;56.57;25.40;;;2.30;99.90;;;;;;4842224;29;20824;-61
2022/12/02 04:11:26;;;;;;;59.20;26.60;;;2.40;99.90;;;;;;4841499;29;20472;-60
2022/12/02 04:13:54;;;;;;;62.37;26.83;;;2.40;99.90;;;;;;4841957;29;20553;-61
2022/12/02 04:16:22;;;;;;;53.63;23.57;;;2.40;99.90;;;;;;4842227;29;20479;-60
2022/12/02 04:18:52;;;;;;;62.97;28.33;;;2.40;99.90;;;;;;4842168;29;20518;-61
2022/12/02 04:21:20;;;;;;;70.23;30.40;;;2.40;99.90;;;;;;4841744;29;20480;-60
2022/12/02 04:23:48;;;;;;;64.87;28.90;;;2.40;99.90;;;;;;4841667;29;20479;-61
2022/12/02 04:26:16;;;;;;;68.33;29.50;;;2.40;99.90;;;;;;4841994;29;20469;-60
2022/12/02 04:28:44;;;;;;;73.60;31.17;;;2.40;99.90;;;;;;4841788;29;20895;-61
2022/12/02 04:31:13;;;;;;;76.40;37.03;;;2.30;99.90;;;;;;4840909;29;20452;-61
2022/12/02 04:33:41;;;;;;;64.90;30.03;;;2.20;99.90;;;;;;4841538;29;20332;-61
2022/12/02 04:36:10;;;;;;;68.97;29.67;;;2.30;99.90;;;;;;4841620;29;20533;-61
2022/12/02 04:38:39;;;;;;;61.77;28.90;;;2.30;99.90;;;;;;4854504;29;20905;-61
2022/12/02 04:41:07;;;;;;;66.07;29.63;;;2.30;99.90;;;;;;4841095;29;20840;-61
2022/12/02 04:43:35;;;;;;;64.00;29.60;;;2.30;99.90;;;;;;4841516;29;20505;-61
2022/12/02 04:46:03;;;;;;;63.87;29.43;;;2.30;99.90;;;;;;4841613;29;20487;-61
2022/12/02 04:48:31;;;;;;;61.73;30.87;;;2.20;99.90;;;;;;4841592;29;20990;-61
2022/12/02 04:50:59;;;;;;;67.67;30.27;;;2.20;99.90;;;;;;4841791;29;20835;-61
2022/12/02 04:53:28;;;;;;;63.90;29.90;;;2.20;99.90;;;;;;4841054;29;20480;-60
2022/12/02 04:55:56;;;;;;;67.23;30.20;;;2.10;99.90;;;;;;4849162;29;20858;-61
2022/12/02 04:58:24;;;;;;;66.23;31.23;;;2.10;99.90;;;;;;4841495;29;20473;-60
2022/12/02 05:00:53;;;;;;;65.90;31.33;;;2.10;99.90;;;;;;4841425;29;20989;-61
2022/12/02 05:03:21;;;;;;;65.23;30.37;;;2.20;99.90;;;;;;4841614;29;20479;-61
2022/12/02 05:05:49;;;;;;;67.20;30.63;;;2.20;99.90;;;;;;4841491;29;20480;-61
2022/12/02 05:08:17;;;;;;;68.37;31.17;;;2.30;99.90;;;;;;4842556;29;20815;-61
2022/12/02 05:10:47;;;;;;;61.80;29.20;;;2.20;99.90;;;;;;4845009;29;20476;-61
2022/12/02 05:13:15;;;;;;;60.90;27.37;;;2.20;99.90;;;;;;4845004;29;20482;-61
2022/12/02 05:15:43;;;;;;;66.07;31.53;;;2.30;99.90;;;;;;4844547;29;20503;-61
2022/12/02 05:18:11;;;;;;;62.50;29.57;;;2.30;99.90;;;;;;4844877;29;20473;-59
2022/12/02 05:20:39;;;;;;;65.90;30.80;;;2.20;99.90;;;;;;4844640;29;20597;-61
2022/12/02 05:23:07;;;;;;;62.90;30.10;;;2.20;99.90;;;;;;4844957;29;20987;-60
2022/12/02 05:25:35;;;;;;;64.33;30.70;;;2.10;99.90;;;;;;4847994;29;21076;-61
2022/12/02 05:28:04;;;;;;;61.97;31.23;;;2.10;99.90;;;;;;4844445;29;20476;-61
2022/12/02 05:30:33;;;;;;;61.40;29.47;;;2.10;99.90;;;;;;4844370;29;20534;-61
2022/12/02 05:33:01;;;;;;;63.93;30.43;;;2.20;99.90;;;;;;4844540;29;20478;-61
2022/12/02 05:35:29;;;;;;;64.83;32.07;;;2.10;99.90;;;;;;4844529;29;20537;-61
2022/12/02 05:37:57;;;;;;;64.17;28.10;;;2.00;99.90;;;;;;4844557;29;20484;-61
2022/12/02 05:40:32;;;;;;;64.77;30.97;;;2.10;99.90;;;;;;4843982;29;20477;-61
2022/12/02 05:43:17;;;;;;;66.53;31.87;;;2.10;99.90;;;;;;4844285;29;20473;-61
2022/12/02 05:45:45;;;;;;;61.83;30.90;;;2.10;99.90;;;;;;4844157;29;20528;-61
2022/12/02 05:48:15;;;;;;;65.00;31.00;;;2.10;99.90;;;;;;4844634;29;20484;-61
2022/12/02 05:50:44;;;;;;;63.80;29.87;;;2.00;99.90;;;;;;4844305;29;21157;-61
2022/12/02 05:53:21;;;;;;;62.47;29.93;;;2.10;99.90;;;;;;4844218;29;20472;-61
2022/12/02 05:55:49;;;;;;;69.63;32.00;;;2.10;99.90;;;;;;4851721;29;20511;-60
2022/12/02 05:58:19;;;;;;;67.57;31.80;;;2.10;99.90;;;;;;4844298;29;20989;-61
2022/12/02 06:00:53;;;;;;;63.53;31.33;;;2.00;99.90;;;;;;4843522;29;20489;-61
2022/12/02 06:03:21;;;;;;;62.57;30.83;;;2.00;99.90;;;;;;4843422;29;20810;-61
2022/12/02 06:05:53;;;;;;;65.67;32.17;;;2.00;99.90;;;;;;4843637;29;20517;-61
2022/12/02 06:08:23;;;;;;;64.23;30.60;;;2.10;99.90;;;;;;4843375;29;20489;-61
2022/12/02 06:10:53;;;;;;;67.27;31.83;;;2.00;99.90;;;;;;4843852;29;20489;-61
2022/12/02 06:13:25;;;;;;;62.87;30.70;;;2.00;99.90;;;;;;4843337;29;20976;-61
2022/12/02 06:15:54;;;;;;;69.07;32.20;;;1.90;99.90;;;;;;4843673;29;20501;-62
2022/12/02 06:18:27;;;;;;;62.87;29.47;;;1.90;99.90;;;;;;4838366;29;20481;-60
2022/12/02 06:20:57;;;;;;;69.00;30.13;;;1.90;99.90;;;;;;4833757;29;20851;-61
2022/12/02 06:23:29;;;;;;;68.70;32.17;;;1.80;99.90;;;;;;4835980;29;20482;-61
2022/12/02 06:25:59;;;;;;;65.50;30.70;;;1.90;99.90;;;;;;4834864;29;20479;-61
2022/12/02 06:28:30;;;;;;;66.40;31.43;;;1.90;99.90;;;;;;4834780;29;20476;-61
2022/12/02 06:31:01;;;;;;;68.33;30.93;;;2.00;99.90;;;;;;4838572;29;20495;-61
2022/12/02 06:33:31;;;;;;;67.00;31.40;;;2.20;99.90;;;;;;4839562;29;20505;-59
2022/12/02 06:36:02;;;;;;;63.80;31.67;;;2.00;99.90;;;;;;4838638;29;20520;-61
2022/12/02 06:38:33;;;;;;;69.00;32.53;;;2.00;99.90;;;;;;4843131;29;20699;-61
2022/12/02 06:41:15;;;;;;;64.77;30.87;;;2.00;99.90;;;;;;4843501;29;20576;-61
2022/12/02 06:45:03;;;;;;;62.13;29.93;;;1.90;99.90;;;;;;4842905;29;20886;-60
2022/12/02 06:46:35;;;;;;;60.40;30.10;;;2.00;99.90;;;;;;4843141;29;20492;-61
2022/12/02 06:49:15;;;;;;;61.10;30.50;;;2.00;99.90;;;;;;4843415;29;20525;-61
2022/12/02 06:51:43;;;;;;;61.53;30.00;;;1.90;99.90;;;;;;4843070;29;21734;-61
2022/12/02 06:54:19;;;;;;;67.77;31.93;;;1.90;99.90;;;;;;4842248;29;20508;-61
2022/12/02 06:56:47;;;;;;;63.50;29.23;;;1.80;99.90;;;;;;4845744;29;20553;-61
2022/12/02 06:59:21;;;;;;;60.70;29.87;;;1.90;99.90;;;;;;4842909;29;20485;-61
2022/12/02 07:01:52;;;;;;;64.37;31.23;;;2.00;99.90;;;;;;4839663;29;20542;-61
2022/12/02 07:04:40;;;;;;;63.03;30.03;;;2.00;99.90;;;;;;4843192;29;20477;-61
2022/12/02 07:07:18;;;;;;;64.67;30.53;;;2.00;99.90;;;;;;4833140;29;20469;-61
2022/12/02 07:09:48;;;;;;;64.00;29.47;;;2.10;99.90;;;;;;4843108;29;20529;-61
2022/12/02 07:12:20;;;;;;;61.23;30.77;;;2.10;99.90;;;;;;4842813;29;20485;-60
2022/12/02 07:14:51;;;;;;;64.37;28.67;;;2.10;99.90;;;;;;4824837;29;20479;-61
2022/12/02 07:17:23;;;;;;;67.77;31.23;;;2.10;99.90;;;;;;4834986;29;20519;-61
2022/12/02 07:19:57;;;;;;;56.80;29.10;;;2.20;99.90;;;;;;4842654;29;20546;-61
2022/12/02 07:22:30;;;;;;;62.83;31.30;;;2.10;99.90;;;;;;4842308;29;20471;-61
2022/12/02 07:25:02;;;;;;;65.73;31.47;;;2.00;99.90;;;;;;4844320;29;20543;-61
2022/12/02 07:27:35;;;;;;;58.30;28.83;;;2.00;99.90;;;;;;4842575;29;20478;-61
2022/12/02 07:30:22;;;;;;;65.40;30.33;;;2.00;99.90;;;;;;4842179;29;20525;-61
2022/12/02 07:32:50;;;;;;;65.00;31.50;;;2.00;99.90;;;;;;4841580;29;20470;-61
2022/12/02 07:35:18;;;;;;;59.30;29.73;;;1.90;99.90;;;;;;4842064;29;20482;-60
2022/12/02 07:37:47;;;;;;;57.20;28.73;;;2.00;99.90;;;;;;4842122;29;20477;-61
2022/12/02 07:40:16;;;;;;;62.77;30.90;;;2.00;99.90;;;;;;4842760;29;20501;-61
2022/12/02 07:42:44;;;;;;;58.50;29.07;;;1.90;99.90;;;;;;4842174;29;20984;-61
2022/12/02 07:45:16;;;;;;;61.60;30.27;;;2.00;99.90;;;;;;4842067;29;20497;-61
2022/12/02 07:47:44;;;;;;;62.47;30.13;;;2.00;99.90;;;;;;4842120;29;20622;-61
2022/12/02 07:54:13;;;;;;;54.90;27.30;;;1.90;99.90;;;;;;4839016;29;21032;-61
2022/12/02 07:56:42;;;;;;;55.80;27.57;;;2.00;99.90;;;;;;4843532;29;20542;-61
2022/12/02 07:59:10;;;;;;;57.20;28.17;;;2.00;99.90;;;;;;4842020;29;21016;-61
2022/12/02 08:01:41;;;;;;;56.47;29.03;;;2.00;99.90;;;;;;4841396;29;21031;-60
2022/12/02 08:04:12;;;;;;;56.13;29.10;;;2.00;99.90;;;;;;4838483;29;20499;-61
2022/12/02 08:06:40;;;;;;;55.87;28.43;;;2.00;99.90;;;;;;4841582;29;20476;-61
2022/12/02 08:09:08;;;;;;;57.97;29.33;;;2.10;99.90;;;;;;4841871;29;20538;-61
2022/12/02 08:11:36;;;;;;;54.27;28.10;;;2.00;99.90;;;;;;4841682;29;20476;-61
2022/12/02 08:14:05;;;;;;;59.00;28.43;;;2.00;99.90;;;;;;4841769;29;20485;-61
2022/12/02 08:16:33;;;;;;;56.20;28.73;;;2.00;99.90;;;;;;4841394;29;20848;-61
2022/12/02 08:19:03;;;;;;;55.77;28.10;;;2.00;99.90;;;;;;4841988;29;20504;-61
2022/12/02 08:21:31;;;;;;;56.03;28.53;;;2.10;99.90;;;;;;4841633;29;20481;-61
2022/12/02 08:24:00;;;;;;;53.37;27.60;;;2.00;99.90;;;;;;4842198;29;20497;-61
2022/12/02 08:26:28;;;;;;;54.53;27.63;;;2.00;99.90;;;;;;4847511;29;20808;-61
2022/12/02 08:28:56;;;;;;;51.47;27.13;;;2.00;99.90;;;;;;4842056;29;20484;-61
2022/12/02 08:31:24;;;;;;;50.97;26.57;;;2.10;99.90;;;;;;4841319;29;20497;-61
2022/12/02 08:33:52;;;;;;;53.60;28.10;;;2.00;99.90;;;;;;4841665;29;20477;-60
2022/12/02 08:36:22;;;;;;;54.03;27.20;;;2.10;99.90;;;;;;4842069;29;20501;-61
2022/12/02 08:38:50;;;;;;;58.23;28.37;;;2.10;99.90;;;;;;4841733;29;20464;-61
2022/12/02 08:41:19;;;;;;;56.20;28.50;;;2.10;99.90;;;;;;4841800;29;20514;-61
2022/12/02 08:43:47;;;;;;;55.10;27.60;;;2.00;99.90;;;;;;4843115;29;21003;-61
2022/12/02 08:46:15;;;;;;;56.17;27.70;;;2.00;99.90;;;;;;4845488;29;20472;-61
2022/12/02 08:48:43;;;;;;;55.60;28.27;;;2.10;99.90;;;;;;4845257;29;20511;-61
2022/12/02 08:51:11;;;;;;;57.50;27.83;;;2.20;99.90;;;;;;4845431;29;20980;-60
2022/12/02 08:53:41;;;;;;;55.93;27.60;;;2.20;99.90;;;;;;4845284;29;21025;-61
2022/12/02 08:56:09;;;;;;;57.87;28.57;;;2.10;99.90;;;;;;4852312;29;20512;-61
2022/12/02 08:58:37;;;;;;;58.77;27.60;;;2.10;99.90;;;;;;4845091;29;20471;-61
2022/12/02 09:01:05;;;;;;;61.30;29.30;;;2.20;99.90;;;;;;4844526;29;20481;-61
2022/12/02 09:03:34;;;;;;;58.73;28.43;;;2.10;99.90;;;;;;4845065;29;20484;-61
2022/12/02 09:06:02;;;;;;;62.80;29.07;;;2.10;99.90;;;;;;4845231;29;20498;-61
2022/12/02 09:08:30;;;;;;;55.93;27.80;;;2.10;99.90;;;;;;4844998;29;20477;-61
2022/12/02 09:11:00;;;;;;;55.60;28.33;;;2.10;99.90;;;;;;4844885;29;20516;-61
2022/12/02 09:13:28;;;;;;;56.80;27.77;;;2.10;99.90;;;;;;4844881;29;20472;-60
2022/12/02 09:15:56;;;;;;;57.80;27.37;;;2.20;99.90;;;;;;4844522;29;20487;-61
2022/12/02 09:18:25;;;;;;;64.10;30.13;;;2.20;99.90;;;;;;4845050;29;20536;-61
2022/12/02 09:20:53;;;;;;;58.63;27.73;;;2.10;99.90;;;;;;4844726;29;20470;-61
2022/12/02 09:23:21;;;;;;;58.03;28.50;;;2.10;99.90;;;;;;4844955;29;20540;-61
2022/12/02 09:25:49;;;;;;;59.23;27.80;;;2.10;99.90;;;;;;4847457;29;20480;-61
2022/12/02 09:28:20;;;;;;;56.70;28.53;;;2.20;99.90;;;;;;4843873;29;20468;-61
2022/12/02 09:30:49;;;;;;;58.27;28.93;;;2.20;99.90;;;;;;4834010;29;20486;-60
2022/12/02 09:33:17;;;;;;;53.30;27.47;;;2.20;99.90;;;;;;4844345;29;20513;-60
2022/12/02 09:35:45;;;;;;;55.23;27.43;;;2.20;99.90;;;;;;4844033;29;20480;-61
2022/12/02 09:38:13;;;;;;;58.00;27.97;;;2.20;99.90;;;;;;4844537;29;20573;-61
2022/12/02 09:40:42;;;;;;;62.10;29.50;;;2.30;99.90;;;;;;4844413;29;20488;-61
2022/12/02 09:43:10;;;;;;;62.93;29.87;;;2.30;99.90;;;;;;4844474;29;20862;-61
2022/12/02 09:45:41;;;;;;;64.47;29.90;;;2.30;99.90;;;;;;4843956;29;20482;-61
2022/12/02 09:48:10;;;;;;;56.37;27.77;;;2.30;99.90;;;;;;4844220;29;20478;-61
2022/12/02 09:50:39;;;;;;;62.33;30.70;;;2.30;99.90;;;;;;4843656;29;20484;-61
2022/12/02 09:53:07;;;;;;;60.87;28.77;;;2.50;99.90;;;;;;4843922;29;20496;-61
2022/12/02 09:55:36;;;;;;;67.33;30.93;;;2.40;99.90;;;;;;4843072;29;20584;-61
2022/12/02 09:58:12;;;;;;;67.23;30.67;;;2.40;99.90;;;;;;4826947;29;20903;-60
2022/12/02 10:00:45;;;;;;;60.70;29.33;;;2.40;99.90;;;;;;4822876;29;20851;-61
2022/12/02 10:03:17;;;;;;;61.70;28.40;;;2.40;99.90;;;;;;4822719;29;20479;-60
2022/12/02 10:05:47;;;;;;;61.60;30.13;;;2.40;99.90;;;;;;4821804;29;20485;-61
2022/12/02 10:08:21;;;;;;;64.17;31.43;;;2.50;99.90;;;;;;4821331;29;20481;-60
2022/12/02 10:10:49;;;;;;;59.47;29.03;;;2.40;99.90;;;;;;4821697;29;20501;-60
2022/12/02 10:13:19;;;;;;;66.27;30.17;;;2.50;99.90;;;;;;4820849;29;20485;-61
2022/12/02 10:15:48;;;;;;;62.43;30.07;;;2.50;99.90;;;;;;4821599;29;20511;-61
2022/12/02 10:18:19;;;;;;;59.40;29.00;;;2.50;99.90;;;;;;4821783;29;20497;-61
2022/12/02 10:20:49;;;;;;;61.80;31.27;;;2.50;99.90;;;;;;4821308;29;20493;-60
2022/12/02 10:23:19;;;;;;;62.50;29.00;;;2.50;99.90;;;;;;4820910;29;20481;-61
2022/12/02 10:25:49;;;;;;;55.03;28.93;;;2.50;99.90;;;;;;4822159;29;21809;-61
2022/12/02 10:28:24;;;;;;;60.47;29.67;;;2.50;99.90;;;;;;4821571;29;20500;-61
2022/12/02 10:30:56;;;;;;;65.20;32.33;;;2.50;99.90;;;;;;4820701;29;20487;-61
2022/12/02 10:33:27;;;;;;;61.30;29.30;;;2.50;99.90;;;;;;4822905;29;20539;-61
2022/12/02 10:35:55;;;;;;;59.20;29.03;;;2.50;99.90;;;;;;4820962;29;20481;-61
2022/12/02 10:38:30;;;;;;;63.00;30.43;;;2.50;99.90;;;;;;4822650;29;20584;-61
2022/12/02 10:41:21;;;;;;;60.60;29.33;;;2.50;99.90;;;;;;4822544;29;20887;-61
2022/12/02 10:44:13;;;;;;;62.53;30.27;;;2.60;99.90;;;;;;4819504;29;20498;-61
2022/12/02 10:46:42;;;;;;;61.83;31.27;;;2.60;99.90;;;;;;4821722;29;20487;-61
2022/12/02 10:49:33;;;;;;;56.47;29.63;;;2.60;99.90;;;;;;4821140;29;20529;-61
2022/12/02 10:52:07;;;;;;;60.43;30.63;;;2.60;99.90;;;;;;4823793;29;20486;-61
2022/12/02 10:54:38;;;;;;;64.13;31.50;;;2.60;99.90;;;;;;4826030;29;20481;-61
2022/12/02 10:57:25;;;;;;;57.27;28.67;;;2.60;99.90;;;;;;4849082;29;20579;-61
2022/12/02 10:59:54;;;;;;;61.40;31.13;;;2.70;99.90;;;;;;4843414;29;20481;-61
2022/12/02 11:02:29;;;;;;;61.47;30.80;;;2.80;99.90;;;;;;4842745;29;20485;-61
2022/12/02 11:05:01;;;;;;;62.13;31.50;;;2.70;99.90;;;;;;4843264;29;20556;-61
2022/12/02 11:07:29;;;;;;;63.60;31.70;;;2.70;99.90;;;;;;4842747;29;20472;-61
2022/12/02 11:09:57;;;;;;;57.93;31.07;;;2.70;99.90;;;;;;4842053;29;20488;-61
2022/12/02 11:12:59;;;;;;;60.40;31.60;;;2.70;99.90;;;;;;4837405;29;20468;-61
2022/12/02 11:15:38;;;;;;;66.40;32.17;;;2.70;99.90;;;;;;4833759;29;20475;-61
2022/12/02 11:18:09;;;;;;;59.50;31.63;;;2.60;99.90;;;;;;4833604;29;20497;-61
2022/12/02 11:20:45;;;;;;;63.00;32.07;;;2.60;99.90;;;;;;4831922;29;20482;-61
2022/12/02 11:23:22;;;;;;;67.93;33.10;;;2.70;99.90;;;;;;4832707;29;20484;-61
2022/12/02 11:26:14;;;;;;;61.77;30.63;;;2.70;99.90;;;;;;4839124;29;20553;-62
2022/12/02 11:29:16;;;;;;;68.80;32.90;;;2.80;99.90;;;;;;4842400;29;20481;-61
2022/12/02 11:32:01;;;;;;;64.03;31.63;;;2.80;99.90;;;;;;4820121;29;20494;-61
2022/12/02 11:34:45;;;;;;;66.30;31.97;;;2.80;99.90;;;;;;4820148;29;20496;-61
2022/12/02 11:37:42;;;;;;;63.33;32.03;;;2.80;99.90;;;;;;4819816;29;20505;-62
2022/12/02 11:40:59;;;;;;;64.97;30.13;;;2.80;99.90;;;;;;4820855;29;20478;-60
2022/12/02 11:43:53;;;;;;;68.27;33.37;;;2.80;99.90;;;;;;4819359;29;20554;-59
2022/12/02 11:46:23;;;;;;;61.80;29.23;;;2.80;99.90;;;;;;4822118;29;20565;-61
2022/12/02 11:48:54;;;;;;;64.93;31.17;;;2.90;99.90;;;;;;4823397;29;20489;-61
2022/12/02 11:51:38;;;;;;;64.80;30.97;;;2.90;99.90;;;;;;4822047;29;20491;-61
2022/12/02 11:54:14;;;;;;;58.67;29.43;;;2.90;99.90;;;;;;4822841;29;20470;-61
2022/12/02 11:56:44;;;;;;;60.47;30.17;;;2.90;99.90;;;;;;4822350;29;20479;-59
2022/12/02 11:59:20;;;;;;;58.37;29.70;;;3.00;99.90;;;;;;4819732;29;20516;-61
2022/12/02 12:01:48;;;;;;;62.87;29.93;;;2.90;99.90;;;;;;4819205;29;20833;-61
2022/12/02 12:04:24;;;;;;;60.10;31.23;;;2.90;99.90;;;;;;4820637;29;20487;-61
2022/12/02 12:06:58;;;;;;;63.43;30.57;;;2.90;99.90;;;;;;4821290;29;20819;-61
2022/12/02 12:09:27;;;;;;;62.67;32.03;;;2.90;99.90;;;;;;4820356;29;20472;-61
2022/12/02 12:12:10;;;;;;;60.37;31.20;;;2.90;99.90;;;;;;4819645;29;20470;-60
2022/12/02 12:14:59;;;;;;;62.93;31.87;;;2.90;99.90;;;;;;4819010;29;20477;-61
2022/12/02 12:17:43;;;;;;;61.93;30.80;;;3.00;99.90;;;;;;4818372;29;20479;-57
2022/12/02 12:20:44;;;;;;;56.57;28.30;;;2.90;99.90;;;;;;4819257;29;20480;-61
2022/12/02 12:23:30;;;;;;;56.67;29.30;;;2.90;99.90;;;;;;4819240;29;20478;-57
2022/12/02 12:25:59;;;;;;;57.93;30.70;;;2.90;99.90;;;;;;4820263;29;20479;-61
2022/12/02 12:28:28;;;;;;;55.07;28.73;;;3.00;99.90;;;;;;4819094;29;20483;-57
2022/12/02 12:30:58;;;;;;;62.70;30.93;;;3.00;99.90;;;;;;4819603;29;20485;-61
2022/12/02 12:33:26;;;;;;;62.47;30.83;;;3.00;99.90;;;;;;4818829;29;20932;-61
2022/12/02 12:35:55;;;;;;;58.63;31.53;;;3.10;99.90;;;;;;4818681;29;20475;-57
2022/12/02 12:38:25;;;;;;;61.97;30.80;;;3.10;99.90;;;;;;4820269;29;20997;-61
2022/12/02 12:40:59;;;;;;;56.40;28.67;;;3.00;99.90;;;;;;4819869;29;20474;-60
2022/12/02 12:43:27;;;;;;;60.53;30.60;;;3.00;99.90;;;;;;4819700;29;20485;-61
2022/12/02 12:45:55;;;;;;;58.13;29.17;;;3.00;99.90;;;;;;4818818;29;20470;-61
2022/12/02 12:48:23;;;;;;;58.10;30.47;;;3.10;99.90;;;;;;4818734;29;20475;-60
2022/12/02 12:50:51;;;;;;;60.40;30.00;;;3.00;99.90;;;;;;4818855;29;20861;-61
2022/12/02 12:53:19;;;;;;;59.83;30.63;;;3.00;99.90;;;;;;4818895;29;20481;-61
2022/12/02 12:55:47;;;;;;;60.73;31.20;;;3.00;99.90;;;;;;4818840;29;20547;-60
2022/12/02 12:58:17;;;;;;;60.03;31.20;;;3.10;99.90;;;;;;4819048;29;20547;-61
2022/12/02 13:00:45;;;;;;;61.67;30.67;;;3.10;99.90;;;;;;4818894;29;20514;-61
2022/12/02 13:03:13;;;;;;;59.20;28.93;;;3.00;99.90;;;;;;4818795;29;20488;-61